Time;durP1;ratioP1;P1;durP2;ratioP2;P2;SDS_P1;SDS_P2;PMS_P1;PMS_P2;Temp;Humidity;BMP_temperature;BMP_pressure;BME280_temperature;BME280_humidity;BME280_pressure;Samples;Min_cycle;Max_cycle;Signal;HPM_P1;HPM_P2
2022/11/07 00:00:07;;;;;;;;;;;;;;;5.83;96.65;100342.70;102361;1288;139363;-56
2022/11/07 00:02:36;;;;;;;52.70;29.60;;;;;;;5.84;96.64;100341.45;106795;1303;22195;-56
2022/11/07 00:05:04;;;;;;;57.70;29.30;;;;;;;5.82;96.41;100342.36;106673;1302;138836;-56
2022/11/07 00:07:31;;;;;;;57.00;29.70;;;;;;;5.81;96.42;100345.02;106810;1303;22241;-56
2022/11/07 00:09:57;;;;;;;61.40;30.40;;;;;;;5.79;96.42;100344.31;106715;1302;140225;-56
2022/11/07 00:12:24;;;;;;;;;;;;;;;5.81;96.50;100345.43;106835;1303;22413;-56
2022/11/07 00:14:51;;;;;;;56.10;30.00;;;;;;;5.82;96.42;100349.14;106788;1294;22170;-56
2022/11/07 00:17:18;;;;;;;55.20;29.50;;;;;;;5.84;96.40;100343.98;106694;1302;138902;-56
2022/11/07 00:19:44;;;;;;;;;;;;;;;5.86;96.67;100343.53;106782;1302;23252;-56
2022/11/07 00:22:11;;;;;;;51.80;27.10;;;;;;;5.88;96.67;100340.02;106687;1302;124961;-60
2022/11/07 00:24:38;;;;;;;55.10;29.90;;;;;;;5.88;96.51;100338.05;106791;1303;22180;-59
2022/11/07 00:27:04;;;;;;;47.70;26.80;;;;;;;5.87;96.27;100336.71;103444;1290;22924;-54
2022/11/07 00:29:32;;;;;;;55.60;29.40;;;;;;;5.87;96.24;100335.25;102420;1285;138348;-54
2022/11/07 00:31:59;;;;;;;60.40;29.50;;;;;;;5.88;96.23;100335.90;102447;1291;22487;-55
2022/11/07 00:34:26;;;;;;;;;;;;;;;5.88;96.41;100331.92;102340;1293;139592;-54
2022/11/07 00:36:52;;;;;;;52.80;29.30;;;;;;;5.89;96.30;100327.64;102414;1295;22847;-54
2022/11/07 00:39:19;;;;;;;57.80;31.00;;;;;;;5.89;96.58;100327.85;102428;1295;22980;-54
2022/11/07 00:41:47;;;;;;;;;;;;;;;5.89;96.33;100324.94;102326;1290;139028;-54
2022/11/07 00:44:14;;;;;;;56.30;28.90;;;;;;;5.88;96.35;100322.21;106790;1303;22419;-55
2022/11/07 00:46:41;;;;;;;59.50;30.90;;;;;;;5.86;96.20;100317.95;106736;1302;139119;-56
2022/11/07 00:49:08;;;;;;;58.90;31.10;;;;;;;5.85;96.28;100320.60;106807;1294;22137;-55
2022/11/07 00:51:34;;;;;;;;;;;;;;;5.86;96.27;100318.98;106839;1303;22357;-55
2022/11/07 00:54:02;;;;;;;54.90;28.00;;;;;;;5.86;96.32;100318.02;106645;1295;125313;-55
2022/11/07 00:56:29;;;;;;;49.80;29.60;;;;;;;5.85;96.44;100310.42;106807;1302;22225;-56
2022/11/07 00:58:56;;;;;;;;;;;;;;;5.84;96.21;100309.04;106652;1294;139817;-55
2022/11/07 01:01:28;;;;;;;50.70;25.20;;;;;;;5.82;96.40;100310.11;106810;1301;23196;-55
2022/11/07 01:06:41;;;;;;;57.00;31.80;;;;;;;5.79;96.37;100305.08;106821;1293;22149;-55
2022/11/07 01:09:10;;;;;;;66.30;32.80;;;;;;;5.79;96.30;100304.08;106768;1302;22260;-55
2022/11/07 01:11:37;;;;;;;50.80;29.50;;;;;;;5.80;96.58;100299.66;106710;1303;138912;-54
2022/11/07 01:14:04;;;;;;;55.90;29.00;;;;;;;5.80;96.68;100295.17;106871;1302;23098;-54
2022/11/07 01:16:34;;;;;;;52.70;30.40;;;;;;;5.82;96.61;100292.35;106663;1293;139440;-55
2022/11/07 01:19:01;;;;;;;60.70;29.50;;;;;;;5.84;96.64;100292.06;106788;1300;22222;-55
2022/11/07 01:21:28;;;;;;;56.70;29.80;;;;;;;5.82;96.69;100289.44;106807;1293;22120;-55
2022/11/07 01:23:55;;;;;;;;;;;;;;;5.86;96.73;100290.95;106691;1303;138539;-56
2022/11/07 01:26:22;;;;;;;57.90;30.10;;;;;;;5.87;96.56;100286.42;106800;1303;22248;-55
2022/11/07 01:28:49;;;;;;;51.70;29.90;;;;;;;5.89;96.66;100288.73;106699;1303;139621;-56
2022/11/07 01:31:15;;;;;;;47.30;30.00;;;;;;;5.91;96.62;100283.48;106720;1309;22129;-56
2022/11/07 01:33:42;;;;;;;;;;;;;;;5.94;96.83;100282.02;106781;1303;22368;-55
2022/11/07 01:36:12;;;;;;;56.00;28.90;;;;;;;5.95;96.53;100280.19;106707;1302;125074;-55
2022/11/07 01:38:40;;;;;;;56.40;29.50;;;;;;;5.97;96.39;100281.44;106824;1302;22150;-56
2022/11/07 01:41:20;;;;;;;54.10;29.90;;;;;;;5.97;96.55;100280.15;106709;1303;138538;-55
2022/11/07 01:44:21;;;;;;;56.50;29.30;;;;;;;5.98;96.61;100277.81;106745;1305;22141;-56
2022/11/07 01:46:48;;;;;;;54.10;29.30;;;;;;;6.00;96.64;100273.58;102277;1294;138907;-54
2022/11/07 01:49:33;;;;;;;;;;;;;;;6.01;96.42;100267.58;102534;1300;25411;-54
2022/11/07 01:52:05;;;;;;;53.00;28.30;;;;;;;6.02;96.47;100266.21;102336;1295;124580;-55
2022/11/07 01:54:46;;;;;;;49.40;27.80;;;;;;;5.99;96.28;100265.23;102432;1293;22606;-54
2022/11/07 01:57:19;;;;;;;48.00;27.40;;;;;;;5.97;96.26;100262.46;102417;1300;22595;-54
2022/11/07 01:59:47;;;;;;;51.90;29.20;;;;;;;5.96;96.25;100259.20;106536;1306;138411;-56
2022/11/07 02:02:13;;;;;;;;;;;;;;;5.95;96.30;100259.21;106806;1304;22364;-56
2022/11/07 02:04:40;;;;;;;51.50;28.10;;;;;;;5.94;96.34;100257.75;106716;1303;125019;-56
2022/11/07 02:07:09;;;;;;;46.60;29.00;;;;;;;5.92;96.39;100258.58;106775;1306;22144;-56
2022/11/07 02:09:36;;;;;;;50.00;27.60;;;;;;;5.93;96.48;100257.46;106755;1306;22783;-56
2022/11/07 02:12:03;;;;;;;52.50;30.00;;;;;;;5.93;96.44;100250.22;106628;1306;139648;-56
2022/11/07 02:14:30;;;;;;;50.50;28.00;;;;;;;5.93;96.38;100248.14;106805;1307;22325;-56
2022/11/07 02:16:57;;;;;;;;;;;;;;;5.94;96.37;100245.06;106676;1309;138334;-56
2022/11/07 02:19:31;;;;;;;48.60;26.30;;;;;;;5.95;96.49;100244.69;106798;1306;22198;-56
2022/11/07 02:22:24;;;;;;;46.50;27.20;;;;;;;5.97;96.53;100244.86;106528;1298;140309;-56
2022/11/07 02:24:54;;;;;;;48.10;26.90;;;;;;;5.95;96.34;100239.49;106724;1302;22112;-56
2022/11/07 02:27:21;;;;;;;47.20;25.90;;;;;;;5.95;96.49;100240.23;106737;1289;22236;-55
2022/11/07 02:29:50;;;;;;;48.10;27.50;;;;;;;5.91;96.27;100234.45;106664;1304;139125;-55
2022/11/07 02:32:17;;;;;;;49.10;29.70;;;;;;;5.94;96.35;100241.61;106712;1306;22261;-55
2022/11/07 02:34:44;;;;;;;;;;;;;;;5.96;96.34;100244.23;106736;1286;139371;-56
2022/11/07 02:37:23;;;;;;;43.70;27.10;;;;;;;5.97;96.29;100239.11;106836;1306;22784;-56
2022/11/07 02:39:49;;;;;;;54.90;27.90;;;;;;;5.97;96.38;100229.55;106764;1303;22212;-56
2022/11/07 02:42:16;;;;;;;;;;;;;;;5.96;96.12;100228.96;106783;1309;23800;-56
2022/11/07 02:44:43;;;;;;;45.70;26.30;;;;;;;5.97;96.39;100236.95;106784;1303;22143;-55
2022/11/07 02:47:10;;;;;;;47.30;27.30;;;;;;;5.97;96.50;100237.23;106619;1305;139546;-55
2022/11/07 02:49:37;;;;;;;44.50;25.90;;;;;;;5.93;96.22;100230.54;106812;1301;22162;-56
2022/11/07 02:52:04;;;;;;;;;;;;;;;5.94;96.33;100227.05;106698;1303;140110;-55
2022/11/07 02:54:30;;;;;;;46.60;25.70;;;;;;;5.97;96.31;100234.33;106795;1302;22928;-55
2022/11/07 02:56:57;;;;;;;;;;;;;;;5.94;96.46;100228.75;106837;1295;22856;-55
2022/11/07 02:59:24;;;;;;;42.50;25.20;;;;;;;6.00;96.43;100240.11;106705;1303;124432;-55
2022/11/07 03:01:52;;;;;;;46.40;26.80;;;;;;;6.00;96.28;100245.98;106774;1303;22130;-55
2022/11/07 03:04:19;;;;;;;43.50;25.80;;;;;;;6.02;96.34;100248.48;106677;1302;139127;-56
2022/11/07 03:06:46;;;;;;;53.00;27.50;;;;;;;6.05;96.39;100253.18;103863;1304;22854;-55
2022/11/07 03:09:13;;;;;;;;;;;;;;;6.08;96.30;100247.86;102485;1302;22436;-53
2022/11/07 03:11:40;;;;;;;41.60;25.30;;;;;;;6.08;96.26;100251.48;102354;1310;124328;-54
2022/11/07 03:14:07;;;;;;;45.80;27.80;;;;;;;6.08;96.39;100252.20;102492;1310;22616;-54
2022/11/07 03:16:33;;;;;;;43.30;27.30;;;;;;;6.08;96.25;100253.23;102338;1300;139598;-53
2022/11/07 03:19:00;;;;;;;;;;;;;;;6.08;96.36;100253.95;102464;1278;22461;-54
2022/11/07 03:21:27;;;;;;;41.20;26.60;;;;;;;6.03;96.34;100247.09;102397;1294;24440;-54
2022/11/07 03:23:54;;;;;;;;;;;;;;;6.05;96.07;100258.89;102433;1310;138474;-54
2022/11/07 03:26:20;;;;;;;39.90;25.00;;;;;;;6.04;96.08;100253.98;102495;1285;22492;-55
2022/11/07 03:28:48;;;;;;;42.40;25.10;;;;;;;6.04;96.10;100256.89;102299;1286;138438;-55
2022/11/07 03:31:15;;;;;;;;;;;;;;;6.05;96.07;100252.98;102523;1295;22526;-55
2022/11/07 03:33:42;;;;;;;42.20;25.80;;;;;;;6.05;96.07;100251.94;102502;1292;22662;-55
2022/11/07 03:36:09;;;;;;;41.60;25.70;;;;;;;5.99;95.87;100244.90;102419;1289;138116;-55
2022/11/07 03:38:36;;;;;;;;;;;;;;;6.02;95.82;100241.28;102409;1296;22454;-56
2022/11/07 03:41:03;;;;;;;47.50;25.30;;;;;;;5.97;95.89;100231.88;102336;1305;125231;-56
2022/11/07 03:43:29;;;;;;;43.30;25.90;;;;;;;5.99;95.77;100239.83;102415;1298;22501;-56
2022/11/07 03:45:56;;;;;;;;;;;;;;;5.97;95.82;100231.45;102386;1293;138530;-56
2022/11/07 03:48:23;;;;;;;42.70;26.00;;;;;;;5.97;95.84;100229.46;102386;1294;22633;-56
2022/11/07 03:50:50;;;;;;;;;;;;;;;5.97;95.89;100227.17;102466;1291;22457;-56
2022/11/07 03:53:17;;;;;;;44.70;25.80;;;;;;;5.96;95.91;100226.38;102363;1295;124534;-55
2022/11/07 03:55:53;;;;;;;42.80;26.50;;;;;;;5.95;95.80;100225.42;106818;1302;22138;-55
2022/11/07 03:58:20;;;;;;;42.50;26.60;;;;;;;5.95;95.96;100224.75;106682;1296;140240;-54
2022/11/07 04:00:46;;;;;;;45.90;26.80;;;;;;;5.95;95.81;100224.51;106807;1302;22188;-54
2022/11/07 04:03:13;;;;;;;;;;;;;;;5.97;95.96;100223.73;106769;1288;22376;-55
2022/11/07 04:05:40;;;;;;;43.10;27.30;;;;;;;5.99;95.77;100221.48;106647;1288;125991;-56
2022/11/07 04:08:07;;;;;;;;;;;;;;;6.00;95.81;100222.02;106810;1302;22343;-55
2022/11/07 04:10:33;;;;;;;53.70;31.20;;;;;;;6.02;95.86;100221.64;106702;1287;127173;-56
2022/11/07 04:18:31;;;;;;;45.70;26.40;;;;;;;6.09;95.71;100222.27;106767;1285;23004;-55
2022/11/07 04:20:58;;;;;;;;;;;;;;;6.12;95.47;100221.56;106788;1302;22343;-55
2022/11/07 04:23:25;;;;;;;41.70;26.10;;;;;;;6.15;95.46;100222.23;106729;1297;124725;-55
2022/11/07 04:28:37;;;;;;;45.10;28.90;;;;;;;6.17;95.24;100217.20;106665;1295;139153;-55
2022/11/07 04:31:04;;;;;;;46.20;27.80;;;;;;;6.19;95.19;100215.52;106745;1302;22260;-55
2022/11/07 04:33:31;;;;;;;;;;;;;;;6.19;94.96;100215.86;106759;1299;23195;-56
2022/11/07 04:35:58;;;;;;;44.90;27.40;;;;;;;6.20;94.85;100212.44;106687;1303;124335;-55
2022/11/07 04:38:24;;;;;;;;;;;;;;;6.22;94.88;100212.91;106825;1287;22343;-55
2022/11/07 04:40:53;;;;;;;42.20;23.90;;;;;;;6.21;94.98;100217.32;106695;1295;126134;-55
2022/11/07 04:43:20;;;;;;;40.60;26.00;;;;;;;6.22;94.93;100217.74;106794;1302;22159;-55
2022/11/07 04:45:47;;;;;;;39.60;24.50;;;;;;;6.22;94.74;100216.33;106808;1287;23130;-55
2022/11/07 04:48:14;;;;;;;42.60;25.10;;;;;;;6.21;94.66;100213.13;106457;1305;139670;-56
2022/11/07 04:50:41;;;;;;;38.30;24.60;;;;;;;6.21;94.56;100210.45;106782;1302;22194;-56
2022/11/07 04:53:11;;;;;;;36.50;22.90;;;;;;;6.22;94.53;100216.23;106509;1303;140681;-55
2022/11/07 04:55:38;;;;;;;37.30;24.30;;;;;;;6.23;94.34;100218.91;106799;1303;22763;-55
2022/11/07 04:58:05;;;;;;;35.60;23.70;;;;;;;6.24;94.31;100226.36;106688;1294;138359;-55
2022/11/07 05:00:31;;;;;;;;;;;;;;;6.24;94.18;100229.07;106837;1295;22413;-55
2022/11/07 05:02:58;;;;;;;35.30;22.50;;;;;;;6.24;94.13;100225.77;106786;1302;22230;-55
2022/11/07 05:05:25;;;;;;;36.70;23.00;;;;;;;6.25;94.03;100226.19;106659;1302;139263;-55
2022/11/07 05:07:52;;;;;;;;;;;;;;;6.26;94.01;100227.86;106588;1297;22392;-55
2022/11/07 05:10:26;;;;;;;37.50;23.20;;;;;;;6.26;93.88;100224.77;106678;1302;124652;-55
2022/11/07 05:12:53;;;;;;;36.70;24.50;;;;;;;6.25;93.87;100225.98;106799;1302;22228;-55
2022/11/07 05:15:20;;;;;;;;;;;;;;;6.26;93.79;100228.94;106791;1302;22426;-55
2022/11/07 05:17:47;;;;;;;33.80;22.60;;;;;;;6.26;93.50;100233.10;106720;1302;124379;-55
2022/11/07 05:20:36;;;;;;;38.10;23.90;;;;;;;6.26;93.53;100237.80;106801;1288;22621;-55
2022/11/07 05:23:17;;;;;;;32.50;22.20;;;;;;;6.27;93.43;100240.71;106700;1302;138375;-55
2022/11/07 05:25:49;;;;;;;34.50;22.20;;;;;;;6.27;93.39;100243.77;106824;1288;22206;-55
2022/11/07 05:28:26;;;;;;;35.00;21.90;;;;;;;6.28;93.43;100245.80;106679;1294;139471;-55
2022/11/07 05:31:04;;;;;;;35.50;22.40;;;;;;;6.30;93.19;100250.05;106767;1288;22122;-55
2022/11/07 05:33:31;;;;;;;32.20;22.00;;;;;;;6.31;93.12;100250.88;106751;1302;23389;-54
2022/11/07 05:36:08;;;;;;;;;;;;;;;6.31;92.91;100253.58;105226;1303;138171;-54
2022/11/07 05:38:35;;;;;;;36.70;21.30;;;;;;;6.30;92.80;100248.13;102403;1289;22490;-54
2022/11/07 05:41:03;;;;;;;34.10;21.80;;;;;;;6.30;92.73;100249.50;102353;1301;140034;-54
2022/11/07 05:43:30;;;;;;;37.10;22.20;;;;;;;6.30;92.73;100254.37;102450;1295;22973;-54
2022/11/07 05:45:59;;;;;;;;;;;;;;;6.29;92.74;100256.04;102447;1310;138348;-54
2022/11/07 05:48:26;;;;;;;35.40;21.30;;;;;;;6.28;92.64;100256.91;106475;1295;22159;-54
2022/11/07 05:50:53;;;;;;;;;;;;;;;6.27;92.64;100259.33;106810;1295;22351;-54
2022/11/07 05:53:20;;;;;;;34.50;20.60;;;;;;;6.25;92.53;100260.23;106693;1303;124723;-54
2022/11/07 05:55:47;;;;;;;33.80;20.90;;;;;;;6.25;92.63;100259.91;106806;1302;22207;-54
2022/11/07 05:58:14;;;;;;;32.70;20.60;;;;;;;6.25;92.32;100260.27;106718;1302;139991;-54
2022/11/07 06:00:41;;;;;;;31.80;21.30;;;;;;;6.24;92.38;100262.52;106847;1288;22174;-54
2022/11/07 06:03:08;;;;;;;34.60;21.40;;;;;;;6.26;92.42;100260.70;106825;1294;22188;-54
2022/11/07 06:05:39;;;;;;;30.80;21.30;;;;;;;6.28;92.55;100263.99;105875;1302;139264;-53
2022/11/07 06:08:07;;;;;;;33.30;21.70;;;;;;;6.29;92.20;100258.95;106529;1310;22150;-56
2022/11/07 06:10:38;;;;;;;28.90;21.00;;;;;;;6.29;92.15;100256.13;106694;1302;140196;-55
2022/11/07 06:13:07;;;;;;;35.50;20.00;;;;;;;6.31;92.36;100249.92;106826;1302;22217;-55
2022/11/07 06:15:34;;;;;;;34.00;21.60;;;;;;;6.31;92.02;100252.42;106807;1294;22789;-55
2022/11/07 06:18:01;;;;;;;;;;;;;;;6.31;92.03;100252.95;106762;1302;138218;-55
2022/11/07 06:20:28;;;;;;;36.80;21.40;;;;;;;6.31;91.92;100255.50;106809;1302;21726;-55
2022/11/07 06:23:00;;;;;;;30.90;20.80;;;;;;;6.32;92.00;100256.83;106690;1302;138372;-53
2022/11/07 06:25:27;;;;;;;35.60;22.20;;;;;;;6.34;91.80;100262.02;106827;1303;22171;-54
2022/11/07 06:28:01;;;;;;;33.50;21.00;;;;;;;6.37;91.78;100263.54;106773;1296;22204;-54
2022/11/07 06:30:28;;;;;;;28.10;19.70;;;;;;;6.40;91.83;100267.12;106796;1302;23057;-55
2022/11/07 06:32:59;;;;;;;33.00;21.00;;;;;;;6.42;91.79;100269.23;106771;1294;22205;-55
2022/11/07 06:35:25;;;;;;;31.50;21.40;;;;;;;6.44;91.63;100263.61;106702;1301;138337;-55
2022/11/07 06:37:52;;;;;;;26.00;19.00;;;;;;;6.45;91.34;100267.08;106773;1295;23585;-55
2022/11/07 06:40:19;;;;;;;27.90;19.50;;;;;;;6.46;91.24;100268.11;106699;1302;140161;-55
2022/11/07 06:42:46;;;;;;;;;;;;;;;6.46;91.16;100264.86;106818;1302;22361;-55
2022/11/07 06:45:12;;;;;;;29.50;18.90;;;;;;;6.43;90.93;100264.21;106831;1302;22792;-55
2022/11/07 06:47:41;;;;;;;29.40;18.70;;;;;;;6.46;90.90;100269.61;106675;1303;138259;-55
2022/11/07 06:50:08;;;;;;;;;;;;;;;6.47;90.74;100266.83;106806;1302;22406;-55
2022/11/07 06:52:35;;;;;;;28.10;19.50;;;;;;;6.46;90.92;100267.61;106684;1301;124501;-55
2022/11/07 06:55:02;;;;;;;27.10;19.00;;;;;;;6.46;90.81;100270.70;106788;1302;22122;-55
2022/11/07 06:57:29;;;;;;;30.50;19.30;;;;;;;6.46;90.94;100268.90;106836;1295;22197;-55
2022/11/07 06:59:55;;;;;;;;;;;;;;;6.47;90.85;100269.11;106773;1303;138261;-55
2022/11/07 07:02:22;;;;;;;29.20;18.70;;;;;;;6.46;90.67;100272.20;106783;1302;22962;-54
2022/11/07 07:05:09;;;;;;;29.90;18.70;;;;;;;6.45;90.61;100277.48;106672;1302;139463;-55
2022/11/07 07:07:36;;;;;;;32.30;22.40;;;;;;;6.47;90.34;100274.23;106777;1302;22139;-55
2022/11/07 07:10:03;;;;;;;34.60;20.80;;;;;;;6.46;90.45;100271.06;106648;1302;139084;-56
2022/11/07 07:12:30;;;;;;;29.70;19.80;;;;;;;6.46;90.37;100274.65;106793;1295;22188;-54
2022/11/07 07:14:56;;;;;;;29.10;18.30;;;;;;;6.46;90.24;100271.23;106810;1302;22194;-55
2022/11/07 07:17:23;;;;;;;;;;;;;;;6.49;90.35;100275.23;106695;1303;138802;-55
2022/11/07 07:19:50;;;;;;;26.70;18.60;;;;;;;6.47;90.17;100272.98;106810;1294;22137;-55
2022/11/07 07:22:17;;;;;;;;;;;;;;;6.49;90.09;100281.64;106697;1303;138351;-55
2022/11/07 07:24:44;;;;;;;29.60;20.00;;;;;;;6.48;89.95;100283.55;106794;1302;22154;-55
2022/11/07 07:27:11;;;;;;;28.50;19.60;;;;;;;6.47;90.12;100281.73;106784;1302;22138;-55
2022/11/07 07:29:38;;;;;;;27.30;19.40;;;;;;;6.48;89.97;100284.31;106733;1302;138554;-55
2022/11/07 07:32:04;;;;;;;;;;;;;;;6.49;89.92;100280.27;106782;1296;22447;-55
2022/11/07 07:34:31;;;;;;;28.80;18.60;;;;;;;6.49;89.92;100278.73;106699;1303;125227;-55
2022/11/07 07:36:58;;;;;;;28.70;19.50;;;;;;;6.51;89.96;100279.86;106803;1288;22208;-55
2022/11/07 07:39:26;;;;;;;;;;;;;;;6.52;89.87;100279.03;106795;1290;22338;-55
2022/11/07 07:41:53;;;;;;;29.70;17.50;;;;;;;6.53;89.84;100277.15;106702;1302;126732;-55
2022/11/07 07:44:20;;;;;;;28.30;19.10;;;;;;;6.53;89.84;100277.23;106742;1303;23058;-55
2022/11/07 07:46:47;;;;;;;;;;;;;;;6.54;89.61;100277.03;106674;1294;138587;-55
2022/11/07 07:49:13;;;;;;;24.60;17.70;;;;;;;6.53;89.69;100275.61;106785;1302;22228;-55
2022/11/07 07:51:40;;;;;;;;;;;;;;;6.54;89.92;100278.20;106786;1294;22417;-55
2022/11/07 07:54:09;;;;;;;32.30;18.50;;;;;;;6.54;89.84;100279.06;106729;1303;124338;-55
2022/11/07 07:58:58;;;;;;;28.80;19.20;;;;;;;6.59;89.92;100282.35;99496;1331;545243;-53
2022/11/07 08:01:26;;;;;;;28.30;20.30;;;;;;;6.59;90.05;100281.80;101184;1307;22616;-54
2022/11/07 08:03:53;;;;;;;28.90;20.30;;;;;;;6.59;89.98;100278.77;101070;1317;24216;-54
2022/11/07 08:06:29;;;;;;;25.50;18.80;;;;;;;6.58;89.90;100283.10;101173;1317;24394;-53
2022/11/07 08:08:56;;;;;;;26.40;18.70;;;;;;;6.56;90.08;100282.28;105687;1314;22209;-55
2022/11/07 08:11:23;;;;;;;28.50;18.90;;;;;;;6.53;90.08;100287.77;105514;1317;138644;-54
2022/11/07 08:13:50;;;;;;;29.50;20.60;;;;;;;6.50;90.25;100285.70;104918;1314;22133;-54
2022/11/07 08:16:17;;;;;;;28.80;18.80;;;;;;;6.47;90.38;100285.56;103483;1314;138789;-55
2022/11/07 08:18:44;;;;;;;;;;;;;;;6.45;90.37;100285.60;102309;1282;24253;-54
2022/11/07 08:21:11;;;;;;;29.10;19.20;;;;;;;6.44;90.47;100283.81;102391;1289;22616;-53
2022/11/07 08:23:38;;;;;;;31.40;19.70;;;;;;;6.43;90.65;100286.30;102229;1282;138198;-54
2022/11/07 08:26:04;;;;;;;;;;;;;;;6.40;91.05;100283.60;102398;1282;22659;-54
2022/11/07 08:28:34;;;;;;;27.50;18.90;;;;;;;6.34;90.99;100277.05;102285;1298;125086;-54
2022/11/07 08:31:01;;;;;;;30.40;20.90;;;;;;;6.36;91.09;100287.05;106593;1298;22146;-55
2022/11/07 08:33:28;;;;;;;39.90;23.50;;;;;;;6.35;91.44;100286.40;106588;1289;22122;-55
2022/11/07 08:35:56;;;;;;;146.80;84.40;;;;;;;6.32;91.51;100279.67;106590;1306;138804;-56
2022/11/07 08:38:22;;;;;;;35.50;23.20;;;;;;;6.34;91.65;100282.55;106639;1306;22184;-55
2022/11/07 08:40:49;;;;;;;;;;;;;;;6.35;91.74;100279.56;106535;1306;138082;-55
2022/11/07 08:43:17;;;;;;;33.10;20.80;;;;;;;6.36;91.68;100274.33;106677;1306;23152;-56
2022/11/07 08:45:44;;;;;;;30.30;20.40;;;;;;;6.37;91.89;100273.66;105721;1306;22474;-54
2022/11/07 08:48:12;;;;;;;30.40;20.50;;;;;;;6.38;91.85;100273.23;106268;1313;138031;-55
2022/11/07 08:50:38;;;;;;;33.70;20.30;;;;;;;6.35;91.86;100266.67;106601;1287;23308;-55
2022/11/07 08:53:05;;;;;;;25.30;18.80;;;;;;;6.36;92.04;100275.77;106503;1290;138390;-55
2022/11/07 08:55:32;;;;;;;;;;;;;;;6.34;91.95;100271.45;106721;1300;22340;-55
2022/11/07 08:58:00;;;;;;;25.30;18.40;;;;;;;6.34;92.10;100272.40;106718;1289;23102;-54
2022/11/07 09:00:27;;;;;;;27.30;19.70;;;;;;;6.32;92.28;100263.73;106482;1306;138619;-53
2022/11/07 09:02:54;;;;;;;27.80;18.30;;;;;;;6.31;92.42;100260.83;106733;1303;22119;-54
2022/11/07 09:05:40;;;;;;;24.50;18.80;;;;;;;6.30;92.49;100261.58;106619;1290;138410;-54
2022/11/07 09:08:07;;;;;;;25.60;17.80;;;;;;;6.29;92.62;100256.04;106769;1303;22108;-54
2022/11/07 09:10:34;;;;;;;25.10;17.70;;;;;;;6.28;92.73;100258.79;106636;1303;140202;-54
2022/11/07 09:13:00;;;;;;;24.90;18.10;;;;;;;6.27;92.86;100257.04;106771;1303;22200;-53
2022/11/07 09:15:27;;;;;;;26.90;18.40;;;;;;;6.27;92.90;100257.50;106695;1303;22338;-53
2022/11/07 09:17:54;;;;;;;23.60;16.40;;;;;;;6.25;93.06;100255.29;106646;1306;138594;-53
2022/11/07 09:20:21;;;;;;;23.80;17.70;;;;;;;6.23;93.32;100254.54;106772;1303;23260;-55
2022/11/07 09:22:48;;;;;;;;;;;;;;;6.21;93.16;100256.52;106671;1303;139630;-55
2022/11/07 09:25:15;;;;;;;21.80;15.90;;;;;;;6.18;93.27;100253.45;106485;1303;22167;-55
2022/11/07 09:27:42;;;;;;;26.70;17.50;;;;;;;6.16;93.18;100249.79;106732;1295;22230;-55
2022/11/07 09:30:09;;;;;;;;;;;;;;;6.14;93.33;100249.70;106687;1303;138165;-54
2022/11/07 09:32:36;;;;;;;23.70;17.20;;;;;;;6.12;93.37;100249.74;106736;1303;22193;-54
2022/11/07 09:35:12;;;;;;;25.70;17.80;;;;;;;6.11;93.33;100248.66;106599;1303;138795;-55
2022/11/07 09:37:40;;;;;;;25.70;16.90;;;;;;;6.10;93.34;100245.79;106711;1298;22106;-56
2022/11/07 09:40:24;;;;;;;23.00;16.70;;;;;;;6.07;93.29;100245.25;106569;1303;139231;-55
2022/11/07 09:43:09;;;;;;;25.50;18.30;;;;;;;6.07;93.43;100246.58;106687;1303;22112;-55
2022/11/07 09:45:59;;;;;;;24.10;18.10;;;;;;;6.07;93.53;100244.08;106775;1303;22219;-56
2022/11/07 09:48:26;;;;;;;25.90;17.40;;;;;;;6.08;93.63;100239.95;106482;1306;138151;-55
2022/11/07 09:50:53;;;;;;;27.40;19.20;;;;;;;6.09;93.66;100235.42;106740;1303;23308;-55
2022/11/07 09:53:54;;;;;;;27.80;19.50;;;;;;;6.11;93.88;100234.14;106604;1303;138174;-55
2022/11/07 09:56:21;;;;;;;22.90;15.80;;;;;;;6.12;93.76;100228.55;106388;1309;23356;-53
2022/11/07 09:58:53;;;;;;;26.80;18.60;;;;;;;6.12;94.03;100222.23;106376;1306;138687;-53
2022/11/07 10:01:20;;;;;;;30.20;19.30;;;;;;;6.11;94.14;100217.06;106498;1307;22976;-54
2022/11/07 10:03:47;;;;;;;27.10;18.80;;;;;;;6.12;94.24;100217.53;106448;1307;22833;-54
2022/11/07 10:06:50;;;;;;;29.00;20.60;;;;;;;6.14;94.44;100213.16;106457;1300;23491;-54
2022/11/07 10:09:31;;;;;;;24.90;18.40;;;;;;;6.14;94.52;100210.45;106375;1295;22213;-55
2022/11/07 10:12:15;;;;;;;90.90;63.60;;;;;;;6.14;94.71;100212.48;106319;1306;138484;-52
2022/11/07 10:14:46;;;;;;;49.30;30.10;;;;;;;6.14;94.62;100208.45;106431;1301;22356;-52
2022/11/07 10:17:19;;;;;;;29.20;20.50;;;;;;;6.14;94.86;100201.92;106382;1295;141347;-52
2022/11/07 10:20:04;;;;;;;26.40;19.90;;;;;;;6.13;94.97;100205.09;106458;1291;22287;-52
2022/11/07 10:22:58;;;;;;;34.60;22.60;;;;;;;6.12;94.89;100204.38;106386;1299;140139;-52
2022/11/07 10:25:44;;;;;;;29.90;20.60;;;;;;;6.08;94.46;100204.21;106491;1306;22359;-51
2022/11/07 10:28:15;;;;;;;27.40;19.20;;;;;;;6.08;94.99;100201.17;106400;1306;139963;-53
2022/11/07 10:30:43;;;;;;;34.50;20.50;;;;;;;6.07;94.79;100195.09;106527;1306;22434;-52
2022/11/07 10:33:18;;;;;;;28.00;18.20;;;;;;;6.06;94.53;100192.62;106708;1288;22192;-53
2022/11/07 10:35:47;;;;;;;27.40;19.10;;;;;;;6.03;94.68;100187.35;106656;1288;137893;-55
2022/11/07 10:38:25;;;;;;;27.00;19.30;;;;;;;6.03;94.71;100186.98;106693;1300;22211;-52
2022/11/07 10:40:51;;;;;;;25.30;18.60;;;;;;;6.03;94.83;100182.98;106527;1291;139346;-52
2022/11/07 10:43:25;;;;;;;;;;;;;;;6.05;94.93;100177.11;106889;1300;23131;-52
2022/11/07 10:45:51;;;;;;;29.40;18.00;;;;;;;6.05;94.92;100172.16;106893;1294;22253;-52
2022/11/07 10:48:18;;;;;;;25.60;19.00;;;;;;;6.05;94.87;100174.48;106727;1293;138136;-52
2022/11/07 10:50:52;;;;;;;27.50;18.90;;;;;;;6.05;94.81;100172.02;106841;1279;22238;-52
2022/11/07 10:53:20;;;;;;;27.40;19.30;;;;;;;6.06;94.84;100172.73;106775;1300;138661;-52
2022/11/07 10:55:48;;;;;;;31.30;20.00;;;;;;;6.07;94.69;100167.13;106842;1296;22319;-52
2022/11/07 10:58:19;;;;;;;23.90;17.20;;;;;;;6.08;94.54;100168.67;106727;1300;140478;-53
2022/11/07 11:00:56;;;;;;;25.40;18.80;;;;;;;6.09;94.67;100168.27;106941;1303;22268;-52
2022/11/07 11:03:26;;;;;;;30.30;20.50;;;;;;;6.10;94.36;100169.52;106856;1293;22914;-52
2022/11/07 11:06:29;;;;;;;40.10;26.40;;;;;;;6.11;94.48;100166.71;106555;1302;141209;-51
2022/11/07 11:08:57;;;;;;;31.70;22.10;;;;;;;6.10;94.34;100167.29;106923;1301;22154;-53
2022/11/07 11:11:27;;;;;;;32.10;20.90;;;;;;;6.10;94.05;100166.70;106695;1286;138945;-53
2022/11/07 11:14:11;;;;;;;27.60;18.80;;;;;;;6.13;94.08;100162.96;106906;1303;22161;-53
2022/11/07 11:16:39;;;;;;;29.20;19.70;;;;;;;6.14;93.94;100162.22;106746;1295;138576;-53
2022/11/07 11:19:17;;;;;;;25.30;19.80;;;;;;;6.12;93.82;100154.77;106786;1302;22110;-53
2022/11/07 11:21:45;;;;;;;26.00;19.50;;;;;;;6.16;93.65;100158.77;106802;1301;22121;-53
2022/11/07 11:24:22;;;;;;;29.50;20.30;;;;;;;6.18;93.68;100159.70;106776;1303;138446;-53
2022/11/07 11:26:49;;;;;;;26.00;17.90;;;;;;;6.19;93.51;100157.63;103895;1303;24264;-52
2022/11/07 11:29:23;;;;;;;26.10;19.50;;;;;;;6.18;93.35;100154.09;106713;1302;139916;-53
2022/11/07 11:31:50;;;;;;;29.90;19.40;;;;;;;6.19;93.25;100154.13;106851;1303;22252;-53
2022/11/07 11:34:20;;;;;;;29.30;18.90;;;;;;;6.20;93.04;100151.61;106680;1302;138210;-53
2022/11/07 11:36:56;;;;;;;27.20;19.20;;;;;;;6.19;92.79;100150.21;106927;1301;22096;-53
2022/11/07 11:39:45;;;;;;;27.40;19.20;;;;;;;6.19;92.65;100149.59;106808;1303;22219;-52
2022/11/07 11:42:38;;;;;;;27.00;19.20;;;;;;;6.17;92.52;100140.48;106214;1308;138144;-52
2022/11/07 11:45:47;;;;;;;26.00;19.60;;;;;;;6.22;92.23;100142.80;106432;1309;22263;-52